This is the latest recevied weather packets stored in our database for station/object S55YIZ-7. If no packets are shown the sender has not sent any weather packets the latest 10 day(s).
| Time | Temp. | Humidity | Pressure | Rain* | Wind** | Luminosity | Snow |
|---|---|---|---|---|---|---|---|
| 1777599562 | 10.56° C | 35% | 1027 hPa | - | - | - | - |
| 1777598662 | 10.56° C | 35% | 1026.9 hPa | - | - | - | - |
| 1777597762 | 10.56° C | 35% | 1026.8 hPa | - | - | - | - |
| 1777596861 | 10.56° C | 35% | 1027 hPa | - | - | - | - |
| 1777595960 | 11.11° C | 34% | 1026.9 hPa | - | - | - | - |
| 1777595060 | 11.11° C | 33% | 1027.1 hPa | - | - | - | - |
| 1777594160 | 11.11° C | 33% | 1027 hPa | - | - | - | - |
| 1777593260 | 11.11° C | 33% | 1027 hPa | - | - | - | - |
| 1777592359 | 11.11° C | 33% | 1027.1 hPa | - | - | - | - |
| 1777591459 | 11.67° C | 32% | 1027.1 hPa | - | - | - | - |
| 1777590559 | 11.67° C | 32% | 1027.1 hPa | - | - | - | - |
| 1777589659 | 11.11° C | 33% | 1027.4 hPa | - | - | - | - |
| 1777588759 | 11.11° C | 33% | 1027.2 hPa | - | - | - | - |
| 1777587859 | 11.67° C | 32% | 1027.2 hPa | - | - | - | - |
| 1777586959 | 11.67° C | 33% | 1027.1 hPa | - | - | - | - |
| 1777586076 | 11.67° C | 32% | - | - | - | - | - |
| 1777586059 | 11.67° C | 32% | 1027 hPa | - | - | - | - |
| 1777585159 | 11.67° C | 33% | 1027 hPa | - | - | - | - |
| 1777584258 | 11.67° C | 34% | 1026.8 hPa | - | - | - | - |
| 1777583358 | 11.67° C | 35% | 1026.8 hPa | - | - | - | - |
| 1777582458 | 11.67° C | 35% | 1026.7 hPa | - | - | - | - |
| 1777581558 | 12.22° C | 33% | 1026.4 hPa | - | - | - | - |
| 1777580658 | 12.22° C | 34% | 1026.4 hPa | - | - | - | - |
| 1777579758 | 12.78° C | 32% | 1026.1 hPa | - | - | - | - |
| 1777578858 | 12.78° C | 30% | 1025.9 hPa | - | - | - | - |
* Rain since midnight (hover to see other rain measurements)
** Current wind speed in m/s (hover to see current wind gust speed)